createdAt,value
2019-03-13T00:04:12.692Z,80.90
2019-03-13T00:09:19.574Z,82.20
2019-03-13T00:14:27.230Z,82.60
2019-03-13T00:19:33.183Z,84.10
2019-03-13T00:24:40.246Z,84.80
2019-03-13T00:29:46.384Z,79.40
2019-03-13T00:34:52.844Z,80.20
2019-03-13T00:40:00.356Z,80.80
2019-03-13T00:45:07.790Z,84.90
2019-03-13T00:50:23.158Z,87.60
2019-03-13T00:55:30.205Z,90.10
2019-03-13T01:00:53.921Z,95.70
2019-03-13T01:06:04.627Z,98.60
2019-03-13T01:11:11.923Z,99.60
2019-03-13T01:16:19.240Z,99.60
2019-03-13T01:21:25.382Z,99.60
2019-03-13T01:26:31.985Z,99.60
2019-03-13T01:31:57.588Z,99.60
2019-03-13T01:37:04.747Z,99.60
2019-03-13T01:42:10.633Z,99.60
2019-03-13T01:47:16.460Z,99.60
2019-03-13T01:52:23.275Z,99.60
2019-03-13T01:57:31.154Z,99.60
2019-03-13T02:02:37.019Z,99.60
2019-03-13T02:07:43.322Z,99.60
2019-03-13T02:12:50.125Z,99.60
2019-03-13T02:17:57.313Z,99.60
2019-03-13T02:23:03.475Z,99.60
2019-03-13T02:28:09.564Z,99.60
2019-03-13T02:33:15.740Z,99.60
2019-03-13T02:38:22.515Z,99.60
2019-03-13T02:43:28.493Z,99.60
2019-03-13T02:48:37.183Z,99.60
2019-03-13T02:53:44.044Z,99.60
2019-03-13T02:58:50.306Z,99.60
2019-03-13T03:04:00.155Z,99.60
2019-03-13T03:09:09.922Z,99.60
2019-03-13T03:14:16.574Z,99.60
2019-03-13T03:19:25.153Z,99.60
2019-03-13T03:24:32.667Z,99.60
2019-03-13T03:29:40.464Z,99.60
2019-03-13T03:34:47.646Z,99.60
2019-03-13T03:39:54.618Z,99.60
2019-03-13T03:45:02.137Z,99.60
2019-03-13T03:50:10.133Z,99.60
2019-03-13T03:55:16.640Z,99.60
2019-03-13T04:00:23.212Z,99.60
2019-03-13T04:05:30.134Z,99.60
2019-03-13T04:10:37.092Z,99.60
2019-03-13T04:15:43.300Z,99.60
2019-03-13T04:20:49.674Z,99.60
2019-03-13T04:25:57.128Z,99.60
2019-03-13T04:31:02.856Z,99.60
2019-03-13T04:36:09.755Z,99.60
2019-03-13T04:41:23.412Z,99.60
2019-03-13T04:46:29.659Z,99.60
2019-03-13T04:51:36.839Z,99.60
2019-03-13T04:56:43.157Z,99.60
2019-03-13T05:01:49.424Z,99.60
2019-03-13T05:06:56.392Z,99.60
2019-03-13T05:12:03.016Z,99.60
2019-03-13T05:17:10.101Z,99.60
2019-03-13T05:22:17.175Z,99.60
2019-03-13T05:27:24.478Z,99.60
2019-03-13T05:32:31.955Z,99.60
2019-03-13T05:37:41.396Z,99.60
2019-03-13T05:42:47.717Z,99.60
2019-03-13T05:47:53.983Z,99.60
2019-03-13T05:53:01.621Z,99.60
2019-03-13T05:58:09.230Z,99.60
2019-03-13T06:03:15.705Z,99.60
2019-03-13T06:08:21.765Z,99.60
2019-03-13T06:13:28.657Z,99.60
2019-03-13T06:18:39.765Z,99.60
2019-03-13T06:23:48.281Z,99.60
2019-03-13T06:28:55.516Z,99.60
2019-03-13T06:34:03.032Z,99.60
2019-03-13T06:39:09.854Z,99.60
2019-03-13T06:44:17.094Z,99.60
2019-03-13T06:49:24.117Z,99.60
2019-03-13T06:54:31.795Z,99.60
2019-03-13T06:59:57.311Z,99.60
2019-03-13T07:05:20.593Z,99.60
2019-03-13T07:10:34.044Z,99.60
2019-03-13T07:15:42.695Z,99.60
2019-03-13T07:21:08.214Z,99.60
2019-03-13T07:26:29.680Z,99.60
2019-03-13T07:32:07.216Z,99.60
2019-03-13T07:37:23.034Z,99.60
2019-03-13T07:42:58.738Z,99.60
2019-03-13T07:48:31.162Z,99.40
2019-03-13T07:54:06.343Z,98.90
2019-03-13T07:59:35.548Z,98.40
2019-03-13T08:04:59.867Z,99.00
2019-03-13T08:10:24.932Z,99.00
2019-03-13T08:15:51.109Z,99.60
2019-03-13T08:21:16.061Z,99.60
2019-03-13T08:26:41.639Z,99.60
2019-03-13T08:31:54.208Z,99.60
2019-03-13T08:37:08.104Z,99.60
2019-03-13T08:42:35.673Z,99.60
2019-03-13T08:48:03.049Z,99.60
2019-03-13T08:53:28.865Z,99.00
2019-03-13T08:58:50.807Z,99.20
2019-03-13T09:04:08.573Z,99.60
2019-03-13T09:09:50.595Z,99.60
2019-03-13T09:14:59.622Z,99.60
2019-03-13T09:20:40.481Z,99.60
2019-03-13T09:26:14.416Z,99.60
2019-03-13T09:31:40.318Z,99.60
2019-03-13T09:43:37.143Z,99.60
2019-03-13T09:49:03.438Z,99.60
2019-03-13T09:54:27.873Z,99.60
2019-03-13T09:59:55.641Z,99.60
2019-03-13T10:05:23.727Z,99.60
2019-03-13T10:11:05.772Z,99.60
2019-03-13T10:16:30.774Z,99.60
2019-03-13T10:22:06.402Z,99.60
2019-03-13T10:27:30.643Z,99.60
2019-03-13T10:32:47.581Z,99.60
2019-03-13T10:38:13.309Z,99.60
2019-03-13T10:43:33.175Z,99.60
2019-03-13T10:49:01.074Z,99.60
2019-03-13T10:54:30.770Z,99.60
2019-03-13T11:00:09.663Z,99.60
2019-03-13T11:05:34.599Z,98.10
2019-03-13T11:10:55.289Z,93.90
2019-03-13T11:16:25.612Z,88.20
2019-03-13T11:21:46.961Z,84.90
2019-03-13T11:27:07.289Z,81.70
2019-03-13T11:32:43.136Z,79.50
2019-03-13T11:38:08.851Z,79.80
2019-03-13T11:43:35.898Z,79.90
2019-03-13T11:49:00.600Z,85.40
2019-03-13T11:54:33.258Z,87.80
2019-03-13T12:00:00.170Z,82.70
2019-03-13T12:05:47.330Z,85.40
2019-03-13T12:11:15.013Z,81.80
2019-03-13T12:16:53.532Z,80.20
2019-03-13T12:22:27.575Z,81.60
2019-03-13T12:27:45.720Z,83.80
2019-03-13T12:33:17.269Z,88.00
2019-03-13T12:38:32.693Z,99.60
2019-03-13T12:44:00.499Z,99.60
2019-03-13T12:49:27.447Z,99.60
2019-03-13T12:54:54.207Z,99.60
2019-03-13T13:00:28.273Z,99.60
2019-03-13T13:06:10.740Z,99.60
2019-03-13T13:11:42.350Z,99.60
2019-03-13T13:17:07.832Z,99.10
2019-03-13T13:22:14.632Z,97.40
2019-03-13T13:27:20.784Z,96.90
2019-03-13T13:32:26.774Z,95.70
2019-03-13T13:37:32.841Z,93.30
2019-03-13T13:42:40.025Z,96.30
2019-03-13T13:47:48.626Z,95.90
2019-03-13T13:52:55.766Z,93.30
2019-03-13T13:58:03.279Z,91.40
2019-03-13T14:03:09.756Z,91.80
2019-03-13T14:08:22.658Z,93.20
2019-03-13T14:13:34.475Z,91.70
2019-03-13T14:18:41.327Z,92.20
2019-03-13T14:23:48.585Z,92.10
2019-03-13T14:28:56.267Z,92.60
2019-03-13T14:34:05.796Z,99.60
2019-03-13T14:39:14.118Z,99.60
2019-03-13T14:44:21.765Z,99.60
2019-03-13T14:49:29.905Z,99.60
2019-03-13T14:54:36.914Z,99.60
2019-03-13T14:59:43.329Z,99.60
2019-03-13T15:04:51.047Z,99.60
2019-03-13T15:09:59.413Z,99.60
2019-03-13T15:15:06.151Z,99.60
2019-03-13T15:20:15.033Z,99.60
2019-03-13T15:25:21.316Z,99.60
2019-03-13T15:30:27.500Z,99.60
2019-03-13T15:35:34.284Z,99.60
2019-03-13T15:40:41.216Z,99.60
2019-03-13T15:45:49.034Z,99.60
2019-03-13T15:50:56.620Z,99.60
2019-03-13T15:56:09.374Z,99.60
2019-03-13T16:01:17.396Z,99.60
2019-03-13T16:06:24.061Z,99.60
2019-03-13T16:11:32.236Z,99.60
2019-03-13T16:16:37.997Z,99.60
2019-03-13T16:21:44.383Z,99.60
2019-03-13T16:26:50.466Z,99.60
2019-03-13T16:31:56.667Z,99.60
2019-03-13T16:37:02.602Z,99.60
2019-03-13T16:42:08.654Z,99.60
2019-03-13T16:47:15.398Z,99.60
2019-03-13T16:52:21.805Z,99.60
2019-03-13T16:57:28.216Z,99.60
2019-03-13T17:02:36.006Z,99.60
2019-03-13T17:07:43.366Z,99.60
2019-03-13T17:13:00.452Z,99.60
2019-03-13T17:18:10.954Z,99.60
2019-03-13T17:23:18.581Z,99.60
2019-03-13T17:28:27.229Z,99.60
2019-03-13T17:33:35.235Z,99.60
2019-03-13T17:38:48.421Z,99.60
2019-03-13T17:44:01.469Z,99.60
2019-03-13T17:49:08.554Z,99.60
2019-03-13T17:54:14.377Z,99.60
2019-03-13T17:59:20.710Z,99.60
2019-03-13T18:04:27.577Z,99.60
2019-03-13T18:09:36.907Z,99.60
2019-03-13T18:14:43.965Z,99.60
2019-03-13T18:19:50.424Z,99.60
2019-03-13T18:25:56.971Z,99.60
2019-03-13T18:31:02.985Z,99.60
2019-03-13T18:36:09.955Z,99.60
2019-03-13T18:41:17.616Z,99.60
2019-03-13T18:46:24.134Z,99.60
2019-03-13T18:51:31.485Z,99.60
2019-03-13T18:56:38.667Z,99.60
2019-03-13T19:01:45.993Z,99.60
2019-03-13T19:06:53.291Z,99.60
2019-03-13T19:11:59.590Z,99.60
2019-03-13T19:17:05.565Z,99.60
2019-03-13T19:22:12.818Z,99.60
2019-03-13T19:27:18.748Z,99.60
2019-03-13T19:32:24.758Z,99.60
2019-03-13T19:37:30.845Z,99.60
2019-03-13T19:42:38.027Z,99.60
2019-03-13T19:47:44.271Z,99.60
2019-03-13T19:52:50.128Z,99.60
2019-03-13T19:57:56.261Z,99.60
2019-03-13T20:03:02.559Z,99.60
2019-03-13T20:08:09.046Z,99.60
2019-03-13T20:13:15.300Z,99.60
2019-03-13T20:18:21.506Z,99.60
2019-03-13T20:23:27.935Z,99.60
2019-03-13T20:28:35.892Z,99.60
2019-03-13T20:33:43.060Z,99.60
2019-03-13T20:38:50.485Z,99.60
2019-03-13T20:43:57.899Z,99.60
2019-03-13T20:49:05.328Z,99.60
2019-03-13T20:54:11.548Z,99.60
2019-03-13T20:59:18.739Z,99.60
2019-03-13T21:04:25.038Z,99.60
2019-03-13T21:09:31.137Z,99.60
2019-03-13T21:14:37.846Z,99.60
2019-03-13T21:19:44.389Z,99.60
2019-03-13T21:24:51.600Z,99.60
2019-03-13T21:29:57.999Z,99.60
2019-03-13T21:35:04.410Z,99.60
2019-03-13T21:40:11.064Z,99.60
2019-03-13T21:45:22.957Z,99.60
2019-03-13T21:50:26.643Z,99.60
2019-03-13T21:55:34.976Z,99.60
2019-03-13T22:00:41.930Z,99.60
2019-03-13T22:05:48.866Z,99.60
2019-03-13T22:10:55.627Z,99.60
2019-03-13T22:16:02.921Z,99.60
2019-03-13T22:21:09.585Z,99.60
2019-03-13T22:26:16.729Z,99.60
2019-03-13T22:31:24.303Z,99.60
2019-03-13T22:36:32.897Z,99.60
2019-03-13T22:41:40.363Z,99.60
2019-03-13T22:46:50.192Z,99.60
2019-03-13T22:51:56.948Z,99.60
2019-03-13T22:57:04.293Z,99.60
2019-03-13T23:02:12.567Z,99.60
2019-03-13T23:07:18.519Z,99.60
2019-03-13T23:12:24.706Z,99.60
2019-03-13T23:17:31.752Z,99.60
2019-03-13T23:22:38.712Z,99.60
2019-03-13T23:27:46.515Z,99.60
2019-03-13T23:32:53.269Z,99.60
2019-03-13T23:38:00.580Z,99.60
2019-03-13T23:43:08.807Z,99.60
2019-03-13T23:48:15.835Z,99.60
2019-03-13T23:53:24.830Z,99.60
2019-03-13T23:58:31.896Z,99.60
